createdAt,value
2022-11-24T00:00:50.915Z,96271.97
2022-11-24T00:03:17.460Z,96268.34
2022-11-24T00:05:44.223Z,96273.94
2022-11-24T00:08:10.734Z,96275.31
2022-11-24T00:10:37.094Z,96281.56
2022-11-24T00:13:03.509Z,96289.22
2022-11-24T00:15:29.917Z,96291.50
2022-11-24T00:17:56.449Z,96291.63
2022-11-24T00:20:22.834Z,96292.75
2022-11-24T00:22:49.196Z,96280.56
2022-11-24T00:25:15.550Z,96285.50
2022-11-24T00:27:41.880Z,96292.78
2022-11-24T00:30:09.839Z,96299.56
2022-11-24T00:32:36.178Z,96287.56
2022-11-24T00:35:02.535Z,96291.31
2022-11-24T00:37:28.960Z,96300.28
2022-11-24T00:39:55.311Z,96304.16
2022-11-24T00:42:21.657Z,96315.53
2022-11-24T00:44:48.003Z,96315.19
2022-11-24T00:47:14.443Z,96322.75
2022-11-24T00:49:40.887Z,96320.44
2022-11-24T00:52:07.240Z,96339.44
2022-11-24T00:54:33.800Z,96323.63
2022-11-24T00:57:00.432Z,96340.59
2022-11-24T00:59:26.827Z,96334.44
2022-11-24T01:01:53.220Z,96333.19
2022-11-24T01:04:19.616Z,96335.59
2022-11-24T01:06:45.965Z,96348.75
2022-11-24T01:09:12.351Z,96336.81
2022-11-24T01:11:57.741Z,96338.63
2022-11-24T01:14:25.371Z,96354.28
2022-11-24T01:16:52.165Z,96356.88
2022-11-24T01:19:18.689Z,96352.25
2022-11-24T01:21:45.176Z,96361.16
2022-11-24T01:24:11.886Z,96363.91
2022-11-24T01:26:38.497Z,96355.13
2022-11-24T01:29:05.119Z,96361.22
2022-11-24T01:31:32.671Z,96354.38
2022-11-24T01:33:59.136Z,96363.66
2022-11-24T01:36:25.568Z,96368.66
2022-11-24T01:38:51.943Z,96363.38
2022-11-24T01:41:24.081Z,96359.06
2022-11-24T01:43:52.091Z,96367.47
2022-11-24T01:46:28.733Z,96369.78
2022-11-24T01:49:05.424Z,96378.28
2022-11-24T01:51:35.697Z,96379.41
2022-11-24T01:54:11.594Z,96374.13
2022-11-24T01:56:42.521Z,96381.09
2022-11-24T01:59:11.925Z,96381.09
2022-11-24T02:01:38.360Z,96381.09
2022-11-24T02:04:10.071Z,96379.41
2022-11-24T02:06:38.823Z,96379.16
2022-11-24T02:09:24.083Z,96378.31
2022-11-24T02:11:51.894Z,96356.28
2022-11-24T02:14:19.400Z,96372.78
2022-11-24T02:16:49.932Z,96370.66
2022-11-24T02:19:33.660Z,96377.72
2022-11-24T02:22:01.498Z,96378.63
2022-11-24T02:24:49.662Z,96379.25
2022-11-24T02:27:16.116Z,96379.25
2022-11-24T02:29:42.705Z,96380.50
2022-11-24T02:32:10.640Z,96380.31
2022-11-24T02:34:37.009Z,96387.13
2022-11-24T02:37:03.488Z,96383.78
2022-11-24T02:39:29.847Z,96379.16
2022-11-24T02:42:01.468Z,96368.69
2022-11-24T02:44:32.728Z,96379.44
2022-11-24T02:47:04.415Z,96388.88
2022-11-24T02:49:30.770Z,96396.53
2022-11-24T02:51:57.178Z,96397.88
2022-11-24T02:54:23.746Z,96388.78
2022-11-24T02:56:50.124Z,96402.41
2022-11-24T02:59:16.453Z,96394.13
2022-11-24T03:01:42.849Z,96386.31
2022-11-24T03:04:09.267Z,96410.19
2022-11-24T03:06:35.648Z,96397.44
2022-11-24T03:09:02.060Z,96394.50
2022-11-24T03:11:28.427Z,96396.13
2022-11-24T03:13:54.832Z,96382.28
2022-11-24T03:16:21.609Z,96393.53
2022-11-24T03:18:50.926Z,96387.81
2022-11-24T03:21:17.312Z,96388.13
2022-11-24T03:23:43.677Z,96378.25
2022-11-24T03:26:12.138Z,96385.81
2022-11-24T03:28:38.998Z,96391.47
2022-11-24T03:31:06.437Z,96388.78
2022-11-24T03:33:32.964Z,96386.66
2022-11-24T03:35:59.610Z,96380.72
2022-11-24T03:38:26.043Z,96390.84
2022-11-24T03:40:52.506Z,96398.88
2022-11-24T03:43:19.179Z,96400.94
2022-11-24T03:45:46.800Z,96393.28
2022-11-24T03:48:14.307Z,96396.91
2022-11-24T03:50:40.766Z,96391.00
2022-11-24T03:53:07.274Z,96402.63
2022-11-24T03:55:33.611Z,96395.34
2022-11-24T03:58:00.134Z,96400.56
2022-11-24T04:00:26.694Z,96406.78
2022-11-24T04:02:53.556Z,96400.84
2022-11-24T04:05:20.227Z,96400.97
2022-11-24T04:07:46.613Z,96397.03
2022-11-24T04:10:13.301Z,96401.31
2022-11-24T04:12:45.382Z,96403.81
2022-11-24T04:15:13.686Z,96407.94
2022-11-24T04:17:40.132Z,96400.84
2022-11-24T04:20:07.654Z,96405.56
2022-11-24T04:22:34.081Z,96397.19
2022-11-24T04:25:00.425Z,96403.25
2022-11-24T04:27:26.831Z,96414.41
2022-11-24T04:29:53.165Z,96417.31
2022-11-24T04:32:19.554Z,96415.63
2022-11-24T04:34:45.955Z,96420.34
2022-11-24T04:37:12.504Z,96420.22
2022-11-24T04:39:38.856Z,96413.38
2022-11-24T04:42:06.135Z,96415.31
2022-11-24T04:44:33.054Z,96424.75
2022-11-24T04:47:00.868Z,96419.13
2022-11-24T04:49:27.407Z,96420.66
2022-11-24T04:51:53.778Z,96414.22
2022-11-24T04:54:20.250Z,96419.69
2022-11-24T04:56:51.725Z,96417.13
2022-11-24T04:59:19.352Z,96430.69
2022-11-24T05:01:46.928Z,96439.41
2022-11-24T05:04:15.557Z,96433.13
2022-11-24T05:06:42.170Z,96437.63
2022-11-24T05:09:13.350Z,96453.81
2022-11-24T05:11:39.724Z,96448.97
2022-11-24T05:14:06.078Z,96458.53
2022-11-24T05:16:32.593Z,96462.88
2022-11-24T05:18:58.990Z,96464.22
2022-11-24T05:21:25.347Z,96471.66
2022-11-24T05:23:51.752Z,96467.56
2022-11-24T05:26:18.336Z,96470.97
2022-11-24T05:28:44.717Z,96485.81
2022-11-24T05:31:11.148Z,96479.19
2022-11-24T05:33:38.197Z,96491.38
2022-11-24T05:36:06.583Z,96480.66
2022-11-24T05:38:33.778Z,96484.13
2022-11-24T05:41:03.587Z,96482.88
2022-11-24T05:43:30.004Z,96486.97
2022-11-24T05:46:00.403Z,96492.91
2022-11-24T05:48:26.987Z,96496.84
2022-11-24T05:50:55.543Z,96490.75
2022-11-24T05:53:22.419Z,96509.38
2022-11-24T05:55:48.805Z,96496.84
2022-11-24T05:58:15.188Z,96504.59
2022-11-24T06:00:41.543Z,96486.44
2022-11-24T06:03:10.276Z,96487.50
2022-11-24T06:05:36.729Z,96494.50
2022-11-24T06:08:03.798Z,96503.47
2022-11-24T06:10:30.468Z,96488.94
2022-11-24T06:12:56.962Z,96491.84
2022-11-24T06:15:23.610Z,96496.13
2022-11-24T06:17:56.940Z,96498.34
2022-11-24T06:20:29.818Z,96505.50
2022-11-24T06:22:58.839Z,96506.09
2022-11-24T06:25:26.278Z,96505.63
2022-11-24T06:27:52.737Z,96500.38
2022-11-24T06:30:19.197Z,96500.84
2022-11-24T06:32:49.373Z,96506.00
2022-11-24T06:35:16.758Z,96516.06
2022-11-24T06:37:43.104Z,96509.44
2022-11-24T06:40:09.942Z,96521.50
2022-11-24T06:42:37.235Z,96525.13
2022-11-24T06:45:08.728Z,96512.00
2022-11-24T06:47:35.889Z,96520.34
2022-11-24T06:50:02.266Z,96532.66
2022-11-24T06:52:28.611Z,96534.97
2022-11-24T06:54:55.005Z,96529.41
2022-11-24T06:57:21.467Z,96542.97
2022-11-24T06:59:47.882Z,96548.94
2022-11-24T07:02:14.256Z,96544.13
2022-11-24T07:04:40.607Z,96547.78
2022-11-24T07:07:07.024Z,96550.72
2022-11-24T07:09:33.481Z,96549.72
2022-11-24T07:12:00.096Z,96560.66
2022-11-24T07:14:26.466Z,96563.75
2022-11-24T07:16:52.842Z,96557.06
2022-11-24T07:19:24.622Z,96564.91
2022-11-24T07:21:51.484Z,96567.69
2022-11-24T07:24:17.842Z,96571.38
2022-11-24T07:26:44.182Z,96574.44
2022-11-24T07:29:10.565Z,96574.19
2022-11-24T07:31:36.933Z,96573.69
2022-11-24T07:34:03.406Z,96585.16
2022-11-24T07:36:29.752Z,96597.00
2022-11-24T07:38:56.155Z,96585.84
2022-11-24T07:41:22.675Z,96595.28
2022-11-24T07:43:49.147Z,96603.72
2022-11-24T07:46:17.422Z,96615.84
2022-11-24T07:48:44.226Z,96607.72
2022-11-24T07:51:10.875Z,96609.72
2022-11-24T07:53:37.608Z,96613.38
2022-11-24T07:56:06.135Z,96615.84
2022-11-24T07:58:35.173Z,96610.56
2022-11-24T08:01:11.143Z,96615.84
2022-11-24T08:03:37.704Z,96619.00
2022-11-24T08:08:50.557Z,96636.03
2022-11-24T08:11:17.984Z,96645.69
2022-11-24T08:13:44.467Z,96630.25
2022-11-24T08:16:13.438Z,96656.84
2022-11-24T08:18:39.962Z,96636.84
2022-11-24T08:21:07.386Z,96637.72
2022-11-24T08:23:34.916Z,96647.94
2022-11-24T08:26:05.430Z,96650.88
2022-11-24T08:28:32.997Z,96655.00
2022-11-24T08:31:11.393Z,96663.69
2022-11-24T08:33:38.404Z,96681.59
2022-11-24T08:36:10.259Z,96681.84
2022-11-24T08:38:37.313Z,96670.09
2022-11-24T08:41:06.342Z,96681.34
2022-11-24T08:43:33.348Z,96674.06
2022-11-24T08:46:06.338Z,96681.25
2022-11-24T08:48:33.211Z,96676.00
2022-11-24T08:51:06.306Z,96687.22
2022-11-24T08:53:32.704Z,96688.44
2022-11-24T08:56:00.747Z,96685.63
2022-11-24T08:58:28.702Z,96690.44
2022-11-24T09:00:55.324Z,96699.50
2022-11-24T09:03:21.758Z,96703.31
2022-11-24T09:05:52.566Z,96708.22
2022-11-24T09:08:19.301Z,96711.91
2022-11-24T09:10:45.659Z,96700.53
2022-11-24T09:13:12.041Z,96714.47
2022-11-24T09:15:38.422Z,96710.66
2022-11-24T09:18:05.376Z,96717.59
2022-11-24T09:20:31.799Z,96724.31
2022-11-24T09:22:58.141Z,96726.69
2022-11-24T09:25:24.550Z,96726.59
2022-11-24T09:27:51.088Z,96714.47
2022-11-24T09:30:17.784Z,96723.28
2022-11-24T09:32:44.124Z,96721.00
2022-11-24T09:35:10.477Z,96732.22
2022-11-24T09:37:37.133Z,96735.03
2022-11-24T09:40:03.835Z,96729.28
2022-11-24T09:42:53.381Z,96733.84
2022-11-24T09:46:03.953Z,96743.75
2022-11-24T09:48:34.945Z,96751.41
2022-11-24T09:51:04.253Z,96741.88
2022-11-24T09:53:41.311Z,96748.41
2022-11-24T09:56:31.109Z,96756.53
2022-11-24T09:59:02.888Z,96751.53
2022-11-24T10:01:36.803Z,96757.34
2022-11-24T10:04:06.619Z,96759.16
2022-11-24T10:06:44.531Z,96766.47
2022-11-24T10:09:13.809Z,96764.13
2022-11-24T10:11:51.369Z,96762.72
2022-11-24T10:14:50.770Z,96763.28
2022-11-24T10:17:24.536Z,96765.44
2022-11-24T10:20:19.996Z,96768.78
2022-11-24T10:23:26.009Z,96774.97
2022-11-24T10:26:12.695Z,96763.69
2022-11-24T10:28:51.323Z,96777.19
2022-11-24T10:31:34.817Z,96790.91
2022-11-24T10:34:09.610Z,96784.06
2022-11-24T10:36:47.044Z,96774.63
2022-11-24T10:39:20.507Z,96779.53
2022-11-24T10:42:00.123Z,96792.63
2022-11-24T10:44:26.575Z,96790.75
2022-11-24T10:46:53.043Z,96799.75
2022-11-24T10:49:25.326Z,96798.66
2022-11-24T10:52:05.674Z,96807.31
2022-11-24T10:54:33.000Z,96799.63
2022-11-24T10:56:59.461Z,96802.47
2022-11-24T10:59:36.736Z,96813.16
2022-11-24T11:02:39.058Z,96810.56
2022-11-24T11:05:26.245Z,96817.25
2022-11-24T11:08:16.002Z,96805.63
2022-11-24T11:10:43.771Z,96807.91
2022-11-24T11:13:21.862Z,96797.66
2022-11-24T11:15:48.350Z,96808.72
2022-11-24T11:18:17.701Z,96810.06
2022-11-24T11:20:53.675Z,96809.47
2022-11-24T11:23:22.439Z,96817.75
2022-11-24T11:25:48.901Z,96816.41
2022-11-24T11:28:18.696Z,96832.91
2022-11-24T11:31:22.685Z,96841.44
2022-11-24T11:34:03.843Z,96824.19
2022-11-24T11:36:33.048Z,96839.94
2022-11-24T11:38:59.879Z,96845.34
2022-11-24T11:41:32.411Z,96844.53
2022-11-24T11:44:21.558Z,96844.22
2022-11-24T11:46:48.201Z,96835.41
2022-11-24T11:49:14.778Z,96844.69
2022-11-24T11:51:44.331Z,96837.50
2022-11-24T11:54:26.098Z,96837.78
2022-11-24T11:57:11.169Z,96831.94
2022-11-24T12:00:04.518Z,96837.56
2022-11-24T12:02:55.566Z,96843.16
2022-11-24T12:05:31.544Z,96852.34
2022-11-24T12:08:19.153Z,96856.88
2022-11-24T12:10:59.413Z,96857.50
2022-11-24T12:13:42.902Z,96859.31
2022-11-24T12:16:49.526Z,96871.31
2022-11-24T12:19:44.456Z,96855.53
2022-11-24T12:22:21.915Z,96854.53
2022-11-24T12:24:58.890Z,96865.22
2022-11-24T12:27:49.509Z,96876.19
2022-11-24T12:30:17.948Z,96871.25
2022-11-24T12:33:18.210Z,96877.84
2022-11-24T12:35:52.899Z,96874.09
2022-11-24T12:38:34.645Z,96874.38
2022-11-24T12:44:23.104Z,96877.72
2022-11-24T12:47:29.390Z,96879.53
2022-11-24T12:50:10.473Z,96878.59
2022-11-24T12:52:46.614Z,96871.84
2022-11-24T12:55:18.319Z,96877.50
2022-11-24T12:58:11.310Z,96880.69
2022-11-24T13:00:43.777Z,96879.97
2022-11-24T13:03:30.447Z,96874.50
2022-11-24T13:06:00.478Z,96886.97
2022-11-24T13:08:28.910Z,96877.25
2022-11-24T13:11:25.295Z,96876.66
2022-11-24T13:14:01.431Z,96905.75
2022-11-24T13:19:21.148Z,96896.63
2022-11-24T13:22:07.053Z,96879.16
2022-11-24T13:24:38.988Z,96902.94
2022-11-24T13:27:15.185Z,96904.78
2022-11-24T13:29:51.563Z,96898.34
2022-11-24T13:32:18.166Z,96906.94
2022-11-24T13:34:49.559Z,96910.03
2022-11-24T13:37:31.377Z,96908.75
2022-11-24T13:40:22.480Z,96905.34
2022-11-24T13:42:55.185Z,96908.16
2022-11-24T13:45:41.089Z,96900.38
2022-11-24T13:48:19.854Z,96916.09
2022-11-24T13:50:53.917Z,96913.91
2022-11-24T13:53:46.741Z,96921.75
2022-11-24T13:56:13.032Z,96920.22
2022-11-24T13:58:41.635Z,96914.84
2022-11-24T14:01:28.363Z,96918.22
2022-11-24T14:04:28.515Z,96907.03
2022-11-24T14:06:53.111Z,96909.06
2022-11-24T14:09:25.958Z,96909.19
2022-11-24T14:12:04.358Z,96903.91
2022-11-24T14:14:30.793Z,96906.31
2022-11-24T14:17:27.650Z,96907.75
2022-11-24T14:19:58.446Z,96910.03
2022-11-24T14:22:41.387Z,96911.22
2022-11-24T14:25:32.295Z,96913.13
2022-11-24T14:28:00.174Z,96925.75
2022-11-24T14:30:26.938Z,96907.94
2022-11-24T14:32:58.737Z,96924.91
2022-11-24T14:35:31.244Z,96920.41
2022-11-24T14:37:58.545Z,96918.94
2022-11-24T14:40:46.090Z,96918.66
2022-11-24T14:43:30.206Z,96915.47
2022-11-24T14:46:01.178Z,96911.97
2022-11-24T14:48:36.904Z,96923.34
2022-11-24T14:51:12.757Z,96918.16
2022-11-24T14:53:45.166Z,96924.38
2022-11-24T14:56:33.841Z,96925.34
2022-11-24T14:59:00.353Z,96916.50
2022-11-24T15:01:26.719Z,96938.69
2022-11-24T15:04:17.876Z,96940.53
2022-11-24T15:07:11.567Z,96938.03
2022-11-24T15:09:57.674Z,96919.19
2022-11-24T15:12:38.640Z,96946.38
2022-11-24T15:15:13.774Z,96945.50
2022-11-24T15:17:54.105Z,96945.84
2022-11-24T15:20:34.993Z,96937.31
2022-11-24T15:23:13.343Z,96942.19
2022-11-24T15:25:39.778Z,96940.97
2022-11-24T15:28:07.628Z,96933.03
2022-11-24T15:30:35.506Z,96936.34
2022-11-24T15:33:02.700Z,96939.91
2022-11-24T15:35:31.782Z,96932.63
2022-11-24T15:37:58.561Z,96948.19
2022-11-24T15:40:24.980Z,96954.19
2022-11-24T15:42:53.886Z,96950.78
2022-11-24T15:45:22.273Z,96948.88
2022-11-24T15:47:48.627Z,96949.16
2022-11-24T15:50:15.549Z,96949.88
2022-11-24T15:52:42.559Z,96953.50
2022-11-24T15:55:21.034Z,96962.22
2022-11-24T15:57:48.746Z,96970.25
2022-11-24T16:00:20.613Z,96968.69
2022-11-24T16:02:47.978Z,96961.03
2022-11-24T16:05:15.706Z,96968.81
2022-11-24T16:07:42.349Z,96959.25
2022-11-24T16:10:22.862Z,96964.25
2022-11-24T16:12:49.199Z,96967.94
2022-11-24T16:15:15.762Z,96961.78
2022-11-24T16:17:42.111Z,96980.06
2022-11-24T16:20:08.969Z,96986.75
2022-11-24T16:22:35.390Z,96981.13
2022-11-24T16:25:03.982Z,96986.81
2022-11-24T16:27:31.092Z,96966.25
2022-11-24T16:29:57.540Z,96968.38
2022-11-24T16:32:23.890Z,96971.94
2022-11-24T16:34:50.243Z,96973.97
2022-11-24T16:37:16.612Z,96960.16
2022-11-24T16:39:49.672Z,96974.78
2022-11-24T16:42:16.496Z,96964.03
2022-11-24T16:44:43.041Z,96967.94
2022-11-24T16:47:09.736Z,96973.06
2022-11-24T16:49:36.101Z,96983.13
2022-11-24T16:52:02.465Z,96973.63
2022-11-24T16:54:28.799Z,96985.94
2022-11-24T16:56:55.191Z,96974.50
2022-11-24T16:59:21.555Z,96972.53
2022-11-24T17:01:50.499Z,96969.75
2022-11-24T17:04:17.845Z,96972.56
2022-11-24T17:06:44.213Z,96984.31
2022-11-24T17:09:10.691Z,96971.50
2022-11-24T17:11:37.140Z,96964.53
2022-11-24T17:14:03.745Z,96972.31
2022-11-24T17:16:30.601Z,96971.06
2022-11-24T17:18:58.583Z,96971.06
2022-11-24T17:21:27.571Z,96978.25
2022-11-24T17:23:55.655Z,96979.78
2022-11-24T17:26:22.120Z,96990.09
2022-11-24T17:28:48.591Z,96989.34
2022-11-24T17:31:31.979Z,96986.75
2022-11-24T17:34:00.149Z,96981.06
2022-11-24T17:36:27.676Z,96983.78
2022-11-24T17:38:54.327Z,96989.63
2022-11-24T17:41:22.021Z,97000.94
2022-11-24T17:43:52.895Z,97000.63
2022-11-24T17:46:19.932Z,96988.88
2022-11-24T17:48:46.882Z,96996.25
2022-11-24T17:51:15.666Z,96985.53
2022-11-24T17:53:43.902Z,96975.66
2022-11-24T17:56:15.229Z,96984.94
2022-11-24T17:58:43.378Z,96996.03
2022-11-24T18:01:10.789Z,96985.09
2022-11-24T18:03:39.052Z,96983.78
2022-11-24T18:06:07.145Z,96986.38
2022-11-24T18:08:34.555Z,97002.44
2022-11-24T18:11:08.093Z,97006.44
2022-11-24T18:13:55.795Z,97012.47
2022-11-24T18:16:21.564Z,97004.22
2022-11-24T18:18:50.421Z,97015.09
2022-11-24T18:21:17.808Z,97011.69
2022-11-24T18:23:44.764Z,97001.59
2022-11-24T18:26:14.789Z,97006.13
2022-11-24T18:28:42.135Z,97009.59
2022-11-24T18:31:12.098Z,97012.50
2022-11-24T18:33:42.936Z,97005.22
2022-11-24T18:36:13.423Z,96995.59
2022-11-24T18:38:39.880Z,96990.00
2022-11-24T18:41:06.620Z,96999.56
2022-11-24T18:43:35.749Z,97002.50
2022-11-24T18:46:07.233Z,96994.28
2022-11-24T18:48:34.549Z,97011.09
2022-11-24T18:51:01.001Z,97016.78
2022-11-24T18:53:27.624Z,97015.28
2022-11-24T18:55:54.851Z,97004.63
2022-11-24T18:58:21.252Z,96999.31
2022-11-24T19:00:47.605Z,97002.91
2022-11-24T19:03:14.042Z,96992.50
2022-11-24T19:05:41.111Z,96996.31
2022-11-24T19:08:07.500Z,96980.97
2022-11-24T19:10:38.275Z,96995.13
2022-11-24T19:13:05.046Z,96992.19
2022-11-24T19:15:35.438Z,96985.00
2022-11-24T19:18:02.054Z,96988.66
2022-11-24T19:20:28.676Z,96977.31
2022-11-24T19:22:55.042Z,96985.16
2022-11-24T19:25:21.431Z,96993.53
2022-11-24T19:27:48.039Z,96984.63
2022-11-24T19:30:16.145Z,96980.53
2022-11-24T19:32:42.674Z,96988.59
2022-11-24T19:35:09.187Z,96992.50
2022-11-24T19:37:35.560Z,96996.41
2022-11-24T19:40:02.431Z,96989.50
2022-11-24T19:42:28.787Z,96978.53
2022-11-24T19:44:56.861Z,97002.03
2022-11-24T19:47:23.423Z,96992.38
2022-11-24T19:49:50.234Z,96992.22
2022-11-24T19:52:16.594Z,96998.34
2022-11-24T19:54:43.205Z,97008.91
2022-11-24T19:57:09.570Z,96996.28
2022-11-24T19:59:35.909Z,97007.09
2022-11-24T20:02:02.659Z,96999.34
2022-11-24T20:04:29.494Z,96998.84
2022-11-24T20:06:55.838Z,96991.16
2022-11-24T20:09:22.200Z,96999.69
2022-11-24T20:11:49.023Z,96997.13
2022-11-24T20:14:18.214Z,97006.63
2022-11-24T20:16:46.485Z,97009.75
2022-11-24T20:19:14.805Z,97011.53
2022-11-24T20:21:46.048Z,97024.88
2022-11-24T20:24:15.717Z,97016.91
2022-11-24T20:26:45.175Z,97013.34
2022-11-24T20:29:13.315Z,96999.66
2022-11-24T20:31:43.479Z,97014.56
2022-11-24T20:34:10.483Z,97006.66
2022-11-24T20:36:39.779Z,97017.16
2022-11-24T20:39:08.978Z,96999.91
2022-11-24T20:41:37.373Z,97001.66
2022-11-24T20:44:07.227Z,97008.03
2022-11-24T20:46:36.459Z,97005.72
2022-11-24T20:49:04.526Z,97002.91
2022-11-24T20:51:33.826Z,96999.38
2022-11-24T20:54:04.380Z,97006.53
2022-11-24T20:56:33.760Z,96999.38
2022-11-24T20:59:00.720Z,97009.16
2022-11-24T21:01:38.356Z,96991.44
2022-11-24T21:04:08.251Z,97003.94
2022-11-24T21:06:35.186Z,96999.38
2022-11-24T21:09:04.132Z,97001.97
2022-11-24T21:11:31.626Z,97004.81
2022-11-24T21:13:58.706Z,97010.28
2022-11-24T21:16:29.080Z,97025.00
2022-11-24T21:19:04.254Z,97016.50
2022-11-24T21:21:34.427Z,97015.53
2022-11-24T21:24:05.525Z,97009.91
2022-11-24T21:26:35.701Z,97014.31
2022-11-24T21:29:02.178Z,97015.88
2022-11-24T21:31:28.669Z,97021.00
2022-11-24T21:33:55.430Z,97027.22
2022-11-24T21:36:24.514Z,97034.16
2022-11-24T21:38:56.166Z,97026.13
2022-11-24T21:41:23.986Z,97035.88
2022-11-24T21:43:51.884Z,97027.19
2022-11-24T21:46:18.332Z,97023.38
2022-11-24T21:48:44.795Z,97017.00
2022-11-24T21:51:16.984Z,97025.19
2022-11-24T21:53:44.448Z,97016.50
2022-11-24T21:56:16.876Z,97039.31
2022-11-24T21:58:45.587Z,97033.41
2022-11-24T22:01:12.437Z,97020.34
2022-11-24T22:03:38.836Z,97011.88
2022-11-24T22:06:05.454Z,97022.66
2022-11-24T22:08:32.029Z,97023.44
2022-11-24T22:11:02.093Z,97008.03
2022-11-24T22:13:28.892Z,96999.81
2022-11-24T22:16:03.082Z,97008.25
2022-11-24T22:18:31.826Z,97000.34
2022-11-24T22:20:58.327Z,96999.81
2022-11-24T22:23:24.883Z,97007.28
2022-11-24T22:25:51.236Z,96998.03
2022-11-24T22:28:17.613Z,96986.47
2022-11-24T22:30:43.989Z,96992.38
2022-11-24T22:33:10.329Z,97009.31
2022-11-24T22:35:36.717Z,96996.25
2022-11-24T22:38:03.074Z,97002.13
2022-11-24T22:40:29.460Z,96995.97
2022-11-24T22:42:55.829Z,96999.34
2022-11-24T22:45:22.201Z,96995.19
2022-11-24T22:47:52.944Z,96992.91
2022-11-24T22:50:19.296Z,96992.84
2022-11-24T22:52:45.644Z,96999.78
2022-11-24T22:55:11.997Z,96997.97
2022-11-24T22:57:38.325Z,96992.97
2022-11-24T23:00:05.219Z,96999.41
2022-11-24T23:02:31.631Z,97003.69
2022-11-24T23:04:57.998Z,97002.66
2022-11-24T23:07:24.359Z,97006.47
2022-11-24T23:09:50.737Z,97002.47
2022-11-24T23:12:18.316Z,96978.63
2022-11-24T23:14:44.667Z,96979.63
2022-11-24T23:17:11.050Z,97002.56
2022-11-24T23:19:37.389Z,96990.78
2022-11-24T23:22:03.719Z,96991.03
2022-11-24T23:24:30.169Z,96981.28
2022-11-24T23:26:56.577Z,96995.34
2022-11-24T23:29:22.939Z,96997.66
2022-11-24T23:31:49.310Z,96995.50
2022-11-24T23:34:15.772Z,96993.72
2022-11-24T23:36:42.221Z,96988.91
2022-11-24T23:39:12.429Z,96997.66
2022-11-24T23:41:39.067Z,96988.69
2022-11-24T23:44:06.022Z,96995.13
2022-11-24T23:46:32.984Z,96992.53
2022-11-24T23:48:59.624Z,96992.34
2022-11-24T23:51:27.128Z,96994.97
2022-11-24T23:53:54.337Z,96990.44
2022-11-24T23:56:23.624Z,96999.16
2022-11-24T23:58:50.662Z,96993.78
